Time;durP1;ratioP1;P1;durP2;ratioP2;P2;SDS_P1;SDS_P2;PMS_P1;PMS_P2;Temp;Humidity;BMP_temperature;BMP_pressure;BME280_temperature;BME280_humidity;BME280_pressure;Samples;Min_cycle;Max_cycle;Signal;HPM_P1;HPM_P2
2022/10/08 00:01:56;;;;;;;10.02;8.50;;;;;;;8.26;100.00;98655.25;4188136;28;20052;-71
2022/10/08 00:03:57;;;;;;;12.90;8.95;;;;;;;8.24;100.00;98646.53;4187540;28;20056;-70
2022/10/08 00:06:06;;;;;;;12.95;9.32;;;;;;;8.18;100.00;98649.56;4187683;28;20151;-70
2022/10/08 00:08:08;;;;;;;14.05;8.73;;;;;;;8.16;100.00;98648.34;4185481;28;20100;-71
2022/10/08 00:10:08;;;;;;;11.77;8.23;;;;;;;8.13;100.00;98660.88;4186895;28;20448;-71
2022/10/08 00:12:08;;;;;;;14.40;8.15;;;;;;;8.11;100.00;98663.19;4186510;28;20314;-71
2022/10/08 00:14:09;;;;;;;13.90;9.10;;;;;;;8.11;100.00;98656.88;4186348;28;20101;-71
2022/10/08 00:16:12;;;;;;;13.55;8.20;;;;;;;8.10;100.00;98653.31;4187443;28;20369;-71
2022/10/08 00:18:13;;;;;;;13.15;9.10;;;;;;;8.10;100.00;98649.75;4186771;28;20021;-71
2022/10/08 00:20:13;;;;;;;11.80;7.45;;;;;;;8.11;100.00;98643.91;4184843;28;20443;-71
2022/10/08 00:22:13;;;;;;;13.38;9.00;;;;;;;8.18;100.00;98649.56;4185381;28;20086;-71
2022/10/08 00:24:16;;;;;;;12.60;8.48;;;;;;;8.21;100.00;98650.03;4186668;28;20036;-71
2022/10/08 00:26:22;;;;;;;12.65;8.77;;;;;;;8.38;100.00;98655.19;4187772;28;20044;-71
2022/10/08 00:28:22;;;;;;;12.98;8.90;;;;;;;8.55;100.00;98656.75;4186486;28;20043;-71
2022/10/08 00:30:23;;;;;;;13.10;9.52;;;;;;;8.72;100.00;98661.84;4186738;28;20035;-71
2022/10/08 00:32:23;;;;;;;17.90;12.43;;;;;;;9.05;100.00;98652.28;4186499;28;20115;-71
2022/10/08 00:34:24;;;;;;;18.48;11.35;;;;;;;9.33;100.00;98646.50;4187086;28;20072;-71
2022/10/08 00:36:28;;;;;;;16.23;11.57;;;;;;;9.55;100.00;98657.59;4188158;28;20123;-71
2022/10/08 00:38:29;;;;;;;16.67;10.70;;;;;;;9.80;100.00;98657.25;4186104;28;20051;-71
2022/10/08 00:40:29;;;;;;;12.18;9.93;;;;;;;9.91;100.00;98654.66;4186931;28;20421;-71
2022/10/08 00:42:29;;;;;;;17.23;10.90;;;;;;;10.07;100.00;98655.31;4186615;28;20198;-71
2022/10/08 00:44:53;;;;;;;17.58;12.25;;;;;;;10.32;100.00;98651.00;4186209;28;20438;-71
2022/10/08 00:46:53;;;;;;;18.52;10.25;;;;;;;10.43;100.00;98642.09;4186944;28;20047;-71
2022/10/08 00:48:57;;;;;;;16.75;10.80;;;;;;;10.50;100.00;98648.50;4185863;28;20187;-71
2022/10/08 00:50:57;;;;;;;15.70;11.15;;;;;;;10.60;100.00;98649.84;4186402;28;20066;-71
2022/10/08 00:53:01;;;;;;;15.55;10.68;;;;;;;10.71;100.00;98653.53;4186070;28;20112;-71
2022/10/08 00:55:05;;;;;;;16.02;11.02;;;;;;;10.72;100.00;98643.28;4185761;28;20444;-71
2022/10/08 00:57:07;;;;;;;15.25;10.50;;;;;;;10.78;100.00;98641.78;4184994;28;20422;-71
2022/10/08 00:59:10;;;;;;;17.23;10.63;;;;;;;10.82;100.00;98634.31;4185589;28;20063;-71
2022/10/08 01:01:12;;;;;;;16.33;11.13;;;;;;;10.91;100.00;98646.69;4188064;28;20127;-71
2022/10/08 01:03:13;;;;;;;13.57;10.85;;;;;;;11.04;100.00;98646.44;4186158;28;20438;-71
2022/10/08 01:05:16;;;;;;;19.83;10.63;;;;;;;11.15;100.00;98633.53;4186639;28;20171;-71
2022/10/08 01:07:25;;;;;;;15.07;10.57;;;;;;;11.16;100.00;98646.19;4186664;28;20227;-71
2022/10/08 01:09:32;;;;;;;15.20;11.25;;;;;;;11.28;100.00;98643.19;4185017;28;20202;-71
2022/10/08 01:11:52;;;;;;;16.15;10.77;;;;;;;11.35;100.00;98642.47;4187661;28;20036;-71
2022/10/08 01:14:06;;;;;;;15.27;10.10;;;;;;;11.36;100.00;98644.06;4185901;28;20074;-71
2022/10/08 01:16:12;;;;;;;17.88;11.18;;;;;;;11.40;100.00;98653.19;4184311;28;20052;-71
2022/10/08 01:18:16;;;;;;;16.10;10.18;;;;;;;11.48;100.00;98654.88;4186130;28;20025;-71
2022/10/08 01:20:38;;;;;;;16.88;11.05;;;;;;;11.51;100.00;98651.34;4183925;28;20072;-71
2022/10/08 01:22:47;;;;;;;16.02;10.68;;;;;;;11.53;100.00;98646.22;4186978;28;20048;-71
2022/10/08 01:27:40;;;;;;;12.32;9.82;;;;;;;11.45;100.00;98639.81;4184881;28;20068;-71
2022/10/08 01:29:44;;;;;;;13.18;9.68;;;;;;;11.43;100.00;98649.69;4173151;28;20048;-71
2022/10/08 01:32:21;;;;;;;14.63;10.65;;;;;;;11.45;100.00;98650.09;4184005;28;20048;-71
2022/10/08 01:34:28;;;;;;;13.63;10.00;;;;;;;11.53;100.00;98660.88;4184318;28;20117;-71
2022/10/08 01:36:37;;;;;;;13.43;9.90;;;;;;;11.51;100.00;98652.16;4186582;28;20131;-71
2022/10/08 01:38:44;;;;;;;11.85;9.75;;;;;;;11.52;100.00;98644.63;4185518;28;20043;-71
2022/10/08 01:40:46;;;;;;;12.45;9.68;;;;;;;11.55;100.00;98652.16;4184657;28;20044;-71
2022/10/08 01:42:50;;;;;;;12.23;9.70;;;;;;;11.50;100.00;98652.50;4185524;28;20116;-71
2022/10/08 01:45:06;;;;;;;13.45;9.52;;;;;;;11.46;100.00;98654.44;4188007;28;20036;-71
2022/10/08 01:47:12;;;;;;;13.07;9.63;;;;;;;11.39;100.00;98652.41;4185536;28;20056;-71
2022/10/08 01:49:19;;;;;;;11.80;8.68;;;;;;;11.35;100.00;98648.81;4184604;28;20044;-71
2022/10/08 01:51:24;;;;;;;15.27;9.70;;;;;;;11.37;100.00;98649.22;4184415;28;20316;-71
2022/10/08 01:53:27;;;;;;;13.75;9.55;;;;;;;11.37;100.00;98642.88;4184910;28;20094;-71
2022/10/08 01:55:33;;;;;;;13.20;9.63;;;;;;;11.37;100.00;98654.75;4186775;28;20043;-71
2022/10/08 01:57:36;;;;;;;13.05;10.25;;;;;;;11.38;100.00;98652.78;4183744;28;20044;-71
2022/10/08 01:59:43;;;;;;;13.75;9.57;;;;;;;11.35;100.00;98659.09;4182435;28;20554;-71
2022/10/08 02:01:59;;;;;;;13.40;9.70;;;;;;;11.30;100.00;98654.66;4185036;28;20518;-71
2022/10/08 02:06:19;;;;;;;16.58;9.20;;;;;;;11.20;100.00;98652.59;4184774;28;20116;-71
2022/10/08 02:08:21;;;;;;;12.90;9.32;;;;;;;11.37;100.00;98659.50;4185890;28;20056;-71
2022/10/08 02:10:24;;;;;;;12.38;8.68;;;;;;;11.36;100.00;98647.63;4184799;28;20366;-71
2022/10/08 02:12:24;;;;;;;11.50;8.07;;;;;;;11.33;100.00;98651.13;4183950;28;20115;-71
2022/10/08 02:14:28;;;;;;;12.30;8.68;;;;;;;11.25;100.00;98650.28;4185855;28;20045;-71
2022/10/08 02:16:29;;;;;;;13.15;8.57;;;;;;;11.23;100.00;98649.03;4184319;28;20055;-71
2022/10/08 02:18:37;;;;;;;15.98;8.80;;;;;;;11.17;100.00;98648.59;4183950;28;20378;-71
2022/10/08 02:20:46;;;;;;;11.48;8.32;;;;;;;11.12;100.00;98650.91;4184578;28;20427;-71
2022/10/08 02:22:59;;;;;;;11.20;7.88;;;;;;;11.09;100.00;98640.56;4184992;28;20040;-71
2022/10/08 02:25:07;;;;;;;16.58;9.05;;;;;;;11.10;100.00;98647.72;4184401;28;20074;-71
2022/10/08 02:27:10;;;;;;;13.07;7.90;;;;;;;11.08;100.00;98648.06;4184073;28;20130;-71
2022/10/08 02:29:42;;;;;;;10.80;8.30;;;;;;;11.05;100.00;98648.84;4183416;28;20056;-71
2022/10/08 02:32:10;;;;;;;14.40;8.30;;;;;;;10.97;100.00;98650.72;4182897;28;20489;-71
2022/10/08 02:34:13;;;;;;;10.35;7.25;;;;;;;10.95;100.00;98657.81;4182766;28;20301;-71
2022/10/08 02:36:18;;;;;;;10.40;8.07;;;;;;;10.92;100.00;98661.31;4185099;28;20135;-71
2022/10/08 02:38:23;;;;;;;12.27;8.27;;;;;;;10.91;100.00;98659.72;4184280;28;20061;-71
2022/10/08 02:40:26;;;;;;;11.15;7.75;;;;;;;10.88;100.00;98652.19;4182029;28;20292;-71
2022/10/08 02:42:27;;;;;;;;;;;;;;;10.86;100.00;98660.88;4183799;28;20045;-71
2022/10/08 02:44:34;;;;;;;12.30;7.60;;;;;;;10.81;100.00;98663.94;4184993;28;19998;-71
2022/10/08 02:46:40;;;;;;;12.00;7.40;;;;;;;10.81;100.00;98668.69;4185699;28;20102;-71
2022/10/08 02:48:45;;;;;;;9.98;7.82;;;;;;;10.79;100.00;98660.78;4184559;28;20060;-71
2022/10/08 02:50:50;;;;;;;13.05;8.85;;;;;;;10.76;100.00;98660.72;4184796;28;20064;-71
2022/10/08 02:52:51;;;;;;;9.45;6.90;;;;;;;10.75;100.00;98654.38;4182542;28;20215;-71
2022/10/08 02:54:55;;;;;;;9.55;7.00;;;;;;;10.73;100.00;98656.72;4184781;28;20033;-71
2022/10/08 02:57:10;;;;;;;11.60;7.35;;;;;;;10.68;100.00;98652.34;4185206;28;20048;-71
2022/10/08 02:59:10;;;;;;;11.65;7.38;;;;;;;10.60;100.00;98649.84;4184289;28;20511;-71
2022/10/08 03:01:44;;;;;;;10.88;7.03;;;;;;;10.59;100.00;98649.03;4183857;28;20131;-71
2022/10/08 03:03:54;;;;;;;13.38;6.13;;;;;;;10.51;100.00;98650.13;4185565;28;20059;-71
2022/10/08 03:05:56;;;;;;;9.38;7.05;;;;;;;10.45;99.88;98653.56;4184640;28;20043;-71
2022/10/08 03:07:58;;;;;;;10.57;6.97;;;;;;;10.39;99.09;98653.09;4183086;28;20218;-71
2022/10/08 03:10:02;;;;;;;9.13;6.55;;;;;;;10.38;98.10;98662.56;4183664;28;20036;-71
2022/10/08 03:12:02;;;;;;;10.18;6.50;;;;;;;10.34;99.58;98662.50;4181813;28;20040;-71
2022/10/08 03:14:08;;;;;;;11.10;6.85;;;;;;;10.33;100.00;98671.94;4183744;28;20401;-71
2022/10/08 03:16:13;;;;;;;11.35;6.55;;;;;;;10.34;100.00;98665.28;4185087;28;20515;-71
2022/10/08 03:18:13;;;;;;;8.65;5.90;;;;;;;10.35;100.00;98668.84;4182594;28;20037;-71
2022/10/08 03:20:14;;;;;;;9.02;6.25;;;;;;;10.34;100.00;98669.97;4188347;28;20029;-71
2022/10/08 03:22:14;;;;;;;9.73;6.57;;;;;;;10.35;100.00;98660.53;4188375;28;20045;-71
2022/10/08 03:24:15;;;;;;;10.90;6.28;;;;;;;10.34;100.00;98670.81;4187754;28;20027;-71
2022/10/08 03:26:16;;;;;;;9.40;5.95;;;;;;;10.32;100.00;98672.31;4188964;28;20031;-71
2022/10/08 03:28:17;;;;;;;11.35;5.50;;;;;;;10.34;99.66;98669.97;4187335;28;20039;-71
2022/10/08 03:30:17;;;;;;;9.68;5.60;;;;;;;10.33;98.55;98665.63;4185984;28;20032;-71
2022/10/08 03:32:17;;;;;;;9.13;4.95;;;;;;;10.39;97.74;98661.38;4187932;28;20040;-71
2022/10/08 03:34:18;;;;;;;13.05;5.75;;;;;;;10.45;96.83;98657.13;4188363;28;20056;-71
2022/10/08 03:36:20;;;;;;;7.63;4.50;;;;;;;10.46;96.72;98664.25;4186969;28;20416;-71
2022/10/08 03:38:20;;;;;;;8.18;4.43;;;;;;;10.48;96.47;98659.13;4186920;28;20403;-71
2022/10/08 03:40:21;;;;;;;9.70;4.32;;;;;;;10.46;96.52;98657.94;4187295;28;20048;-71
2022/10/08 03:42:21;;;;;;;8.65;4.50;;;;;;;10.40;96.44;98662.97;4184313;28;20141;-71
2022/10/08 03:44:21;;;;;;;8.40;4.53;;;;;;;10.36;96.74;98668.47;4187179;28;20084;-71
2022/10/08 03:46:21;;;;;;;6.57;4.20;;;;;;;10.33;96.98;98671.16;4187398;28;20103;-71
2022/10/08 03:48:22;;;;;;;8.00;4.35;;;;;;;10.28;97.03;98672.28;4185991;28;20508;-71
2022/10/08 03:50:23;;;;;;;7.18;4.45;;;;;;;10.25;96.64;98667.47;4185107;28;20077;-71
2022/10/08 03:52:23;;;;;;;9.68;4.80;;;;;;;10.24;96.15;98670.63;4187268;28;20123;-71
2022/10/08 03:54:23;;;;;;;8.93;4.38;;;;;;;10.20;96.21;98669.75;4187119;28;20083;-71
2022/10/08 03:56:24;;;;;;;9.88;4.82;;;;;;;10.25;95.94;98673.00;4187767;28;20749;-71
2022/10/08 03:58:24;;;;;;;7.88;4.10;;;;;;;10.25;95.37;98673.00;4185760;28;20450;-71
2022/10/08 04:00:24;;;;;;;8.23;4.35;;;;;;;10.26;95.21;98669.09;4188214;28;20068;-71
2022/10/08 04:02:25;;;;;;;6.90;3.92;;;;;;;10.23;95.83;98671.78;4185383;28;20048;-71
2022/10/08 04:04:26;;;;;;;8.45;4.10;;;;;;;10.20;95.41;98678.03;4184570;28;20479;-71
2022/10/08 04:06:26;;;;;;;9.73;4.47;;;;;;;10.17;95.62;98676.00;4187881;28;20411;-71
2022/10/08 04:08:27;;;;;;;10.95;4.55;;;;;;;10.17;95.93;98693.38;4187100;28;20037;-71
2022/10/08 04:10:27;;;;;;;9.25;4.82;;;;;;;10.18;96.50;98683.13;4186701;28;20033;-71
2022/10/08 04:12:28;;;;;;;7.55;4.43;;;;;;;10.18;96.13;98680.34;4186198;28;20969;-71
2022/10/08 04:14:28;;;;;;;7.95;4.25;;;;;;;10.19;95.88;98682.78;4185622;28;20028;-71
2022/10/08 04:16:28;;;;;;;13.27;4.40;;;;;;;10.14;96.31;98678.34;4185876;28;20043;-71
2022/10/08 04:18:29;;;;;;;7.28;4.38;;;;;;;10.15;95.97;98681.91;4186627;28;20751;-71
2022/10/08 04:20:31;;;;;;;8.23;4.68;;;;;;;10.08;95.93;98679.03;4185440;28;20040;-71
2022/10/08 04:22:31;;;;;;;7.17;4.40;;;;;;;10.02;96.11;98680.53;4184610;28;20694;-71
2022/10/08 04:24:31;;;;;;;6.07;4.13;;;;;;;9.99;97.04;98689.53;4187078;28;20390;-71
2022/10/08 04:26:32;;;;;;;9.38;4.35;;;;;;;9.93;96.98;98689.06;4188423;28;20043;-71
2022/10/08 04:28:32;;;;;;;9.38;4.05;;;;;;;9.89;97.19;98696.47;4188560;28;20071;-71
2022/10/08 04:30:32;;;;;;;16.33;4.53;;;;;;;9.84;97.50;98689.28;4186752;28;20442;-71
2022/10/08 04:32:33;;;;;;;7.22;3.55;;;;;;;9.79;97.59;98691.56;4188608;28;20329;-71
2022/10/08 04:34:33;;;;;;;7.25;3.78;;;;;;;9.73;97.14;98699.34;4187956;28;20472;-71
2022/10/08 04:36:33;;;;;;;6.10;4.05;;;;;;;9.70;97.50;98696.53;4188271;28;20037;-71
2022/10/08 04:38:34;;;;;;;6.53;4.15;;;;;;;9.65;97.87;98691.31;4187843;28;20045;-71
2022/10/08 04:40:34;;;;;;;8.55;4.05;;;;;;;9.62;97.40;98700.34;4188437;28;20170;-71
2022/10/08 04:42:35;;;;;;;7.63;3.78;;;;;;;9.58;97.84;98703.81;4187733;28;20459;-71
2022/10/08 04:44:35;;;;;;;6.72;3.30;;;;;;;9.50;97.72;98693.00;4187852;28;20195;-71
2022/10/08 04:46:35;;;;;;;5.22;3.58;;;;;;;9.41;97.50;98698.75;4187980;28;20180;-71
2022/10/08 04:48:37;;;;;;;6.38;3.75;;;;;;;9.34;97.85;98704.13;4187935;28;20041;-71
2022/10/08 04:50:38;;;;;;;7.70;4.25;;;;;;;9.24;98.07;98702.75;4188019;28;20037;-71
2022/10/08 04:52:38;;;;;;;9.68;3.72;;;;;;;9.21;98.41;98708.22;4188773;28;20051;-71
2022/10/08 04:54:38;;;;;;;7.05;3.72;;;;;;;9.15;98.31;98702.16;4187796;28;20044;-71
2022/10/08 04:56:39;;;;;;;5.38;3.47;;;;;;;9.13;98.17;98712.00;4188409;28;20393;-71
2022/10/08 04:58:40;;;;;;;7.00;3.97;;;;;;;9.09;97.90;98720.19;4186985;28;20044;-71
2022/10/08 05:00:40;;;;;;;8.05;3.78;;;;;;;9.06;97.74;98718.16;4187889;28;20436;-71
2022/10/08 05:02:41;;;;;;;8.60;3.53;;;;;;;9.05;98.08;98724.84;4183787;28;20045;-71
2022/10/08 05:04:41;;;;;;;6.22;3.53;;;;;;;9.06;98.16;98734.72;4186854;28;20036;-71
2022/10/08 05:06:41;;;;;;;5.53;3.65;;;;;;;9.06;98.60;98725.63;4188804;28;20129;-71
2022/10/08 05:08:43;;;;;;;8.75;3.90;;;;;;;9.11;98.52;98730.88;4187597;28;20139;-71
2022/10/08 05:10:47;;;;;;;8.80;3.63;;;;;;;9.14;98.67;98728.19;4187709;28;20123;-71
2022/10/08 05:12:48;;;;;;;5.68;3.30;;;;;;;9.17;98.07;98734.94;4188148;28;20040;-71
2022/10/08 05:14:48;;;;;;;5.80;3.30;;;;;;;9.18;98.55;98720.75;4187711;28;20055;-71
2022/10/08 05:16:49;;;;;;;8.57;3.78;;;;;;;9.21;97.97;98717.28;4187526;28;20091;-71
2022/10/08 05:18:50;;;;;;;7.15;3.65;;;;;;;9.19;98.13;98721.59;4187270;28;20110;-71
2022/10/08 05:20:51;;;;;;;8.48;3.78;;;;;;;9.22;97.93;98718.09;4187032;28;20036;-71
2022/10/08 05:22:51;;;;;;;7.47;3.42;;;;;;;9.23;97.40;98730.72;4186495;28;20499;-71
2022/10/08 05:24:51;;;;;;;8.25;4.18;;;;;;;9.20;98.07;98732.25;4188518;28;20482;-71
2022/10/08 05:26:52;;;;;;;7.40;3.50;;;;;;;9.17;97.78;98724.69;4186292;28;20068;-71
2022/10/08 05:28:55;;;;;;;9.00;3.80;;;;;;;9.11;97.42;98717.88;4186369;28;20246;-71
2022/10/08 05:30:59;;;;;;;8.95;4.00;;;;;;;9.09;97.50;98716.63;4187825;28;20037;-71
2022/10/08 05:33:00;;;;;;;7.07;4.35;;;;;;;9.09;97.56;98720.19;4187025;28;20048;-71
2022/10/08 05:35:00;;;;;;;10.82;4.18;;;;;;;9.07;97.32;98727.22;4184129;28;20047;-71
2022/10/08 05:37:00;;;;;;;8.93;3.80;;;;;;;8.98;97.42;98731.00;4188441;28;20048;-71
2022/10/08 05:39:03;;;;;;;7.30;3.85;;;;;;;8.92;97.61;98732.44;4186936;28;20468;-71
2022/10/08 05:41:25;;;;;;;6.80;3.85;;;;;;;8.89;97.54;98732.38;4186665;28;20048;-71
2022/10/08 05:43:25;;;;;;;5.25;3.90;;;;;;;8.82;97.86;98737.72;4187028;28;20052;-71
2022/10/08 05:45:25;;;;;;;6.97;3.63;;;;;;;8.76;97.88;98739.94;4185579;28;20049;-71
2022/10/08 05:47:25;;;;;;;10.30;3.35;;;;;;;8.73;98.47;98741.47;4187803;28;20361;-71
2022/10/08 05:49:26;;;;;;;7.68;3.95;;;;;;;8.69;98.86;98743.38;4187034;28;20139;-71
2022/10/08 05:51:28;;;;;;;9.98;3.78;;;;;;;8.67;97.95;98742.91;4187168;28;20512;-71
2022/10/08 05:53:28;;;;;;;7.38;3.83;;;;;;;8.68;98.14;98743.69;4186743;28;20053;-71
2022/10/08 05:55:28;;;;;;;5.45;3.30;;;;;;;8.71;98.39;98751.28;4187244;28;20457;-71
2022/10/08 05:57:29;;;;;;;4.72;3.65;;;;;;;8.77;98.32;98738.00;4186160;28;20575;-71
2022/10/08 05:59:29;;;;;;;10.63;3.40;;;;;;;8.77;97.90;98736.06;4184928;28;20529;-71
2022/10/08 06:01:31;;;;;;;5.05;3.22;;;;;;;8.76;97.87;98731.69;4183303;28;20713;-71
2022/10/08 06:03:32;;;;;;;6.82;3.20;;;;;;;8.82;97.64;98744.03;4125299;28;20364;-71
2022/10/08 06:05:32;;;;;;;5.32;3.00;;;;;;;8.84;98.01;98746.44;4189028;28;20098;-71
2022/10/08 06:07:32;;;;;;;7.53;4.15;;;;;;;8.86;97.66;98744.94;4188350;28;20234;-71
2022/10/08 06:09:33;;;;;;;10.38;3.88;;;;;;;8.92;97.54;98746.22;4186080;28;20365;-71
2022/10/08 06:11:35;;;;;;;9.20;3.10;;;;;;;9.05;96.96;98746.13;4185427;28;20762;-71
2022/10/08 06:13:35;;;;;;;7.40;3.53;;;;;;;9.15;96.08;98751.84;4184848;28;20068;-71
2022/10/08 06:15:36;;;;;;;4.60;2.40;;;;;;;9.25;94.91;98751.28;4185052;28;20302;-71
2022/10/08 06:17:36;;;;;;;7.32;2.50;;;;;;;9.33;94.85;98755.00;4187908;28;20385;-71
2022/10/08 06:19:36;;;;;;;5.15;2.65;;;;;;;9.36;94.75;98757.03;4186470;28;20037;-71
2022/10/08 06:21:37;;;;;;;8.18;2.45;;;;;;;9.46;94.00;98758.44;4185499;28;20041;-71
2022/10/08 06:23:43;;;;;;;4.80;2.70;;;;;;;9.53;92.93;98755.81;4186496;28;20048;-71
2022/10/08 06:25:43;;;;;;;10.48;2.67;;;;;;;9.57;93.01;98743.66;4186472;28;20056;-71
2022/10/08 06:27:44;;;;;;;7.35;2.60;;;;;;;9.69;91.55;98744.69;4187117;28;20040;-71
2022/10/08 06:29:44;;;;;;;8.48;2.53;;;;;;;9.79;91.17;98749.59;4184576;28;20377;-71
2022/10/08 06:31:45;;;;;;;5.13;2.28;;;;;;;9.83;90.75;98740.19;4184639;28;20170;-71
2022/10/08 06:33:45;;;;;;;6.07;2.25;;;;;;;9.93;89.97;98749.03;4184738;28;20037;-71
2022/10/08 06:35:46;;;;;;;6.88;2.85;;;;;;;9.94;89.91;98745.94;4186361;28;20389;-71
2022/10/08 06:37:47;;;;;;;6.38;2.50;;;;;;;9.97;90.36;98760.97;4186521;28;20051;-71
2022/10/08 06:39:47;;;;;;;6.03;2.22;;;;;;;9.95;90.36;98761.34;4185186;28;20043;-71
2022/10/08 06:41:48;;;;;;;8.85;3.13;;;;;;;9.98;89.85;98763.38;4187544;28;20037;-71
2022/10/08 06:43:48;;;;;;;7.03;3.08;;;;;;;9.99;89.68;98759.44;4185970;28;20477;-71
2022/10/08 06:45:49;;;;;;;5.78;2.70;;;;;;;10.03;89.53;98768.59;4185969;28;20489;-71
2022/10/08 06:47:49;;;;;;;7.78;3.40;;;;;;;10.03;90.07;98770.56;4186203;28;20056;-71
2022/10/08 06:49:49;;;;;;;5.18;2.45;;;;;;;10.01;90.42;98761.81;4184346;28;20087;-71
2022/10/08 06:51:50;;;;;;;5.90;2.35;;;;;;;10.04;89.51;98767.44;4186664;28;20044;-71
2022/10/08 06:53:53;;;;;;;9.15;2.90;;;;;;;10.10;89.51;98779.00;4184989;28;20036;-71
2022/10/08 06:56:02;;;;;;;6.28;2.60;;;;;;;10.14;89.30;98777.09;4187918;28;20670;-71
2022/10/08 06:58:04;;;;;;;6.75;2.25;;;;;;;10.22;88.44;98780.78;4185970;28;20048;-71
2022/10/08 07:00:05;;;;;;;6.60;1.95;;;;;;;10.28;87.77;98780.13;4185287;28;20074;-71
2022/10/08 07:02:05;;;;;;;4.00;1.88;;;;;;;10.32;88.28;98780.97;4185217;28;20524;-71
2022/10/08 07:04:05;;;;;;;6.25;2.30;;;;;;;10.35;87.74;98780.25;4186865;28;20021;-71
2022/10/08 07:06:08;;;;;;;8.13;2.33;;;;;;;10.37;87.82;98774.34;4182415;28;20028;-71
2022/10/08 07:08:09;;;;;;;5.15;2.22;;;;;;;10.44;87.52;98774.47;4185873;28;20021;-71
2022/10/08 07:10:09;;;;;;;6.13;2.10;;;;;;;10.57;85.90;98778.63;4186693;28;20610;-71
2022/10/08 07:12:09;;;;;;;6.65;2.22;;;;;;;10.61;85.78;98776.75;4185579;28;20036;-71
2022/10/08 07:14:10;;;;;;;9.35;2.33;;;;;;;10.69;85.95;98780.41;4186158;28;20472;-71
2022/10/08 07:16:20;;;;;;;7.63;2.00;;;;;;;10.79;85.37;98792.81;4185409;28;20072;-71
2022/10/08 07:18:21;;;;;;;5.82;2.20;;;;;;;10.80;85.09;98784.13;4185393;28;20393;-71
2022/10/08 07:20:21;;;;;;;6.93;2.28;;;;;;;10.84;84.49;98786.94;4185925;28;20091;-71
2022/10/08 07:22:23;;;;;;;5.50;2.28;;;;;;;10.85;84.66;98783.03;4185850;28;20144;-71
2022/10/08 07:24:23;;;;;;;4.83;2.37;;;;;;;10.89;84.72;98778.34;4185994;28;20041;-71
2022/10/08 07:26:26;;;;;;;6.07;1.95;;;;;;;10.92;84.18;98778.41;4186047;28;20274;-71
2022/10/08 07:28:30;;;;;;;7.28;2.50;;;;;;;10.97;84.42;98780.03;4185705;28;20048;-71
2022/10/08 07:30:31;;;;;;;6.25;1.92;;;;;;;10.97;83.78;98775.31;4184287;28;20053;-71
2022/10/08 07:32:32;;;;;;;7.50;2.10;;;;;;;10.98;83.12;98787.97;4186328;28;20094;-71
2022/10/08 07:34:32;;;;;;;3.80;2.05;;;;;;;11.00;83.28;98782.06;4186052;28;20573;-71
2022/10/08 07:36:33;;;;;;;5.05;2.00;;;;;;;11.01;83.34;98788.41;4186127;28;20058;-71
2022/10/08 07:38:34;;;;;;;3.90;1.65;;;;;;;11.02;83.93;98792.78;4183275;28;20094;-71
2022/10/08 07:40:34;;;;;;;9.18;2.55;;;;;;;11.02;84.28;98795.56;4187230;28;20045;-71
2022/10/08 07:42:35;;;;;;;4.65;1.73;;;;;;;11.03;83.57;98794.38;4185746;28;20040;-71
2022/10/08 07:44:35;;;;;;;6.13;1.98;;;;;;;11.07;83.18;98806.28;4185759;28;20049;-71
2022/10/08 07:46:36;;;;;;;5.50;2.20;;;;;;;11.09;83.01;98795.63;4185925;28;20033;-71
2022/10/08 07:48:38;;;;;;;7.47;3.15;;;;;;;11.12;82.23;98797.66;4184833;28;20442;-71
2022/10/08 07:50:38;;;;;;;10.27;3.13;;;;;;;11.23;82.56;98802.16;4185963;28;20852;-71
2022/10/08 07:52:39;;;;;;;9.63;2.75;;;;;;;11.29;82.16;98799.09;4185447;28;20326;-70
2022/10/08 07:54:41;;;;;;;5.70;2.08;;;;;;;11.38;81.15;98805.94;4185383;28;20657;-70
2022/10/08 07:56:41;;;;;;;7.72;1.88;;;;;;;11.37;81.52;98798.00;4185222;28;20044;-71
2022/10/08 07:58:42;;;;;;;9.90;3.53;;;;;;;11.38;81.52;98813.47;4184490;28;20033;-71
2022/10/08 08:00:43;;;;;;;5.70;2.92;;;;;;;11.39;81.55;98815.03;4185813;28;20434;-71
2022/10/08 08:02:46;;;;;;;5.32;3.28;;;;;;;11.36;81.75;98821.34;4185271;28;20091;-71
2022/10/08 08:04:47;;;;;;;7.07;2.75;;;;;;;11.31;81.86;98808.59;4186789;28;20135;-71
2022/10/08 08:06:47;;;;;;;11.93;4.32;;;;;;;11.36;81.45;98815.81;4188370;28;20327;-71
2022/10/08 08:08:47;;;;;;;6.13;3.42;;;;;;;11.37;80.75;98826.50;4188062;28;20505;-71
2022/10/08 08:10:49;;;;;;;8.00;2.85;;;;;;;11.37;81.12;98825.72;4189184;28;20055;-70
2022/10/08 08:12:49;;;;;;;8.73;2.70;;;;;;;11.27;81.38;98818.06;4186901;28;20527;-71
2022/10/08 08:14:49;;;;;;;9.02;3.97;;;;;;;11.22;81.73;98822.72;4188382;28;20048;-71
2022/10/08 08:16:49;;;;;;;7.07;3.28;;;;;;;11.28;81.43;98830.72;4188418;28;20396;-71
2022/10/08 08:18:53;;;;;;;11.27;3.20;;;;;;;11.22;81.50;98833.00;4178109;28;20469;-71
2022/10/08 08:21:01;;;;;;;7.63;2.45;;;;;;;11.20;81.88;98824.28;4188120;28;20086;-71
2022/10/08 08:23:02;;;;;;;5.03;2.30;;;;;;;11.27;81.88;98827.16;4187991;28;20250;-71
2022/10/08 08:25:02;;;;;;;4.85;2.22;;;;;;;11.34;82.04;98821.72;4188605;28;20536;-71
2022/10/08 08:27:03;;;;;;;8.35;2.63;;;;;;;11.49;80.58;98820.72;4188498;28;20532;-71
2022/10/08 08:29:06;;;;;;;10.63;2.53;;;;;;;11.54;80.91;98819.63;4187678;28;20166;-71
2022/10/08 08:31:07;;;;;;;5.32;2.10;;;;;;;11.64;80.81;98823.69;4188054;28;20080;-71
2022/10/08 08:33:08;;;;;;;5.25;1.90;;;;;;;11.74;79.73;98821.03;4188930;28;20037;-71
2022/10/08 08:35:08;;;;;;;9.18;2.30;;;;;;;11.82;79.60;98813.63;4187514;28;20056;-71
2022/10/08 08:37:08;;;;;;;6.57;2.13;;;;;;;11.80;80.10;98804.91;4188390;28;20155;-71
2022/10/08 08:39:23;;;;;;;4.78;1.90;;;;;;;11.89;79.91;98819.28;4187619;28;20052;-71
2022/10/08 08:41:32;;;;;;;5.97;2.10;;;;;;;11.94;79.77;98818.16;4187521;28;20048;-71
2022/10/08 08:43:33;;;;;;;6.00;1.95;;;;;;;12.02;78.44;98828.94;4187413;28;20078;-71
2022/10/08 08:45:35;;;;;;;5.40;2.05;;;;;;;12.09;79.16;98819.91;4187573;28;20051;-71
2022/10/08 08:47:40;;;;;;;9.43;2.38;;;;;;;12.14;78.53;98827.06;4188218;28;20059;-71
2022/10/08 08:49:46;;;;;;;7.28;2.28;;;;;;;12.23;78.23;98817.25;4187794;28;20076;-71
2022/10/08 08:51:47;;;;;;;7.35;1.95;;;;;;;12.31;76.93;98821.72;4187711;28;20040;-71
2022/10/08 08:53:47;;;;;;;3.80;1.95;;;;;;;12.43;75.50;98819.84;4187388;28;20044;-71
2022/10/08 08:55:50;;;;;;;7.55;2.10;;;;;;;12.51;74.86;98819.53;4187385;28;20067;-71
2022/10/08 08:58:10;;;;;;;6.90;2.80;;;;;;;12.59;75.07;98823.19;4188696;28;20057;-71
2022/10/08 09:00:19;;;;;;;5.03;2.17;;;;;;;12.69;74.64;98822.47;4186321;28;20040;-71
2022/10/08 09:02:34;;;;;;;5.97;2.10;;;;;;;12.68;74.19;98815.31;4188939;28;20032;-71
2022/10/08 09:04:41;;;;;;;5.13;1.67;;;;;;;12.75;73.73;98831.25;4187889;28;20473;-71
2022/10/08 09:06:43;;;;;;;3.20;1.73;;;;;;;12.83;73.84;98836.47;4187287;28;20041;-71
2022/10/08 09:08:54;;;;;;;6.95;1.60;;;;;;;13.02;74.03;98837.41;4187698;28;20098;-71
2022/10/08 09:11:01;;;;;;;6.07;1.90;;;;;;;13.22;72.30;98835.97;4185459;28;20071;-71
2022/10/08 09:13:02;;;;;;;5.38;1.98;;;;;;;13.24;73.49;98833.63;4187245;28;20059;-71
2022/10/08 09:15:04;;;;;;;10.27;2.22;;;;;;;13.28;73.57;98839.19;4187579;28;20044;-71
2022/10/08 09:17:17;;;;;;;4.07;1.73;;;;;;;13.30;73.53;98839.59;4186596;28;20036;-71
2022/10/08 09:19:18;;;;;;;3.85;1.30;;;;;;;13.45;71.31;98839.28;4187572;28;20052;-71
2022/10/08 09:21:19;;;;;;;4.43;1.40;;;;;;;13.53;72.90;98842.91;4187743;28;20519;-71
2022/10/08 09:23:22;;;;;;;5.25;1.65;;;;;;;13.56;72.14;98839.34;4187089;28;20048;-71
2022/10/08 09:25:24;;;;;;;;;;;;;;;13.62;71.02;98850.91;4187870;28;20072;-71
2022/10/08 09:27:24;;;;;;;7.22;2.22;;;;;;;13.62;70.47;98837.78;4187077;28;19923;-71
2022/10/08 09:29:33;;;;;;;5.47;2.25;;;;;;;13.56;71.17;98844.91;4187080;28;20523;-71
2022/10/08 09:31:38;;;;;;;3.97;2.10;;;;;;;13.58;69.68;98850.09;4187354;28;20067;-71
2022/10/08 09:33:39;;;;;;;5.00;1.80;;;;;;;13.56;69.89;98842.13;4186609;28;20512;-71
2022/10/08 09:35:43;;;;;;;4.25;1.70;;;;;;;13.54;70.52;98852.06;4187472;28;20047;-71
2022/10/08 09:37:48;;;;;;;7.38;1.35;;;;;;;13.52;70.70;98863.56;4187158;28;20045;-71
2022/10/08 09:40:15;;;;;;;6.93;2.20;;;;;;;13.48;70.82;98860.75;4186293;28;20396;-71
2022/10/08 09:42:16;;;;;;;2.70;1.30;;;;;;;13.55;71.92;98860.00;4186575;28;20041;-71